sensor_id;sensor_type;location;lat;lon;timestamp;pressure;altitude;pressure_sealevel;temperature;humidity
49585;BME280;35491;49.142;9.210;2024-03-08T00:02:09;99894.28;;;6.22;57.35
49585;BME280;35491;49.142;9.210;2024-03-08T00:04:09;99891.16;;;6.17;57.32
49585;BME280;35491;49.142;9.210;2024-03-08T00:06:10;99893.19;;;6.13;57.23
49585;BME280;35491;49.142;9.210;2024-03-08T00:08:11;99892.59;;;6.09;57.79
49585;BME280;35491;49.142;9.210;2024-03-08T00:10:12;99885.38;;;6.12;57.72
49585;BME280;35491;49.142;9.210;2024-03-08T00:12:12;99885.81;;;6.05;57.74
49585;BME280;35491;49.142;9.210;2024-03-08T00:14:13;99891.72;;;5.98;58.13
49585;BME280;35491;49.142;9.210;2024-03-08T00:16:13;99877.47;;;5.87;58.30
49585;BME280;35491;49.142;9.210;2024-03-08T00:18:14;99882.41;;;5.92;58.08
49585;BME280;35491;49.142;9.210;2024-03-08T00:20:15;99878.53;;;5.73;58.60
49585;BME280;35491;49.142;9.210;2024-03-08T00:22:17;99883.09;;;5.71;58.65
49585;BME280;35491;49.142;9.210;2024-03-08T00:24:18;99873.44;;;5.70;58.82
49585;BME280;35491;49.142;9.210;2024-03-08T00:26:18;99878.16;;;5.67;58.92
49585;BME280;35491;49.142;9.210;2024-03-08T00:28:18;99876.47;;;5.77;58.56
49585;BME280;35491;49.142;9.210;2024-03-08T00:30:19;99867.06;;;5.73;58.66
49585;BME280;35491;49.142;9.210;2024-03-08T00:32:19;99868.75;;;5.74;58.73
49585;BME280;35491;49.142;9.210;2024-03-08T00:34:19;99863.09;;;5.78;58.53
49585;BME280;35491;49.142;9.210;2024-03-08T00:36:19;99863.06;;;5.67;58.69
49585;BME280;35491;49.142;9.210;2024-03-08T00:38:20;99863.53;;;5.61;58.89
49585;BME280;35491;49.142;9.210;2024-03-08T00:40:20;99863.78;;;5.58;58.95
49585;BME280;35491;49.142;9.210;2024-03-08T00:42:21;99857.63;;;5.57;58.93
49585;BME280;35491;49.142;9.210;2024-03-08T00:44:22;99858.47;;;5.58;58.95
49585;BME280;35491;49.142;9.210;2024-03-08T00:46:22;99854.16;;;5.68;58.68
49585;BME280;35491;49.142;9.210;2024-03-08T00:48:23;99862.09;;;5.57;58.89
49585;BME280;35491;49.142;9.210;2024-03-08T00:50:23;99860.06;;;5.60;58.74
49585;BME280;35491;49.142;9.210;2024-03-08T00:52:24;99853.50;;;5.53;58.87
49585;BME280;35491;49.142;9.210;2024-03-08T00:54:25;99853.91;;;5.60;59.00
49585;BME280;35491;49.142;9.210;2024-03-08T00:56:25;99846.31;;;5.67;58.62
49585;BME280;35491;49.142;9.210;2024-03-08T00:58:26;99850.53;;;5.69;58.50
49585;BME280;35491;49.142;9.210;2024-03-08T01:00:26;99850.78;;;5.77;57.91
49585;BME280;35491;49.142;9.210;2024-03-08T01:02:26;99843.41;;;5.58;58.74
49585;BME280;35491;49.142;9.210;2024-03-08T01:04:27;99837.72;;;5.52;58.83
49585;BME280;35491;49.142;9.210;2024-03-08T01:06:29;99838.66;;;5.28;59.14
49585;BME280;35491;49.142;9.210;2024-03-08T01:08:29;99841.31;;;5.28;59.38
49585;BME280;35491;49.142;9.210;2024-03-08T01:10:29;99833.72;;;5.35;59.34
49585;BME280;35491;49.142;9.210;2024-03-08T01:12:29;99827.09;;;5.29;59.17
49585;BME280;35491;49.142;9.210;2024-03-08T01:14:30;99826.00;;;5.31;59.07
49585;BME280;35491;49.142;9.210;2024-03-08T01:16:30;99828.22;;;5.49;58.65
49585;BME280;35491;49.142;9.210;2024-03-08T01:18:33;99815.16;;;5.23;59.36
49585;BME280;35491;49.142;9.210;2024-03-08T01:20:33;99813.84;;;5.40;59.07
49585;BME280;35491;49.142;9.210;2024-03-08T01:22:33;99814.94;;;5.38;59.02
49585;BME280;35491;49.142;9.210;2024-03-08T01:24:34;99811.41;;;5.26;59.17
49585;BME280;35491;49.142;9.210;2024-03-08T01:26:34;99814.41;;;5.21;59.25
49585;BME280;35491;49.142;9.210;2024-03-08T01:28:35;99811.84;;;5.20;59.30
49585;BME280;35491;49.142;9.210;2024-03-08T01:30:37;99799.72;;;5.28;59.01
49585;BME280;35491;49.142;9.210;2024-03-08T01:32:37;99795.00;;;5.09;59.63
49585;BME280;35491;49.142;9.210;2024-03-08T01:34:38;99800.09;;;5.35;59.24
49585;BME280;35491;49.142;9.210;2024-03-08T01:36:38;99796.88;;;5.43;58.79
49585;BME280;35491;49.142;9.210;2024-03-08T01:38:39;99791.28;;;5.35;58.82
49585;BME280;35491;49.142;9.210;2024-03-08T01:40:39;99802.19;;;5.43;58.48
49585;BME280;35491;49.142;9.210;2024-03-08T01:42:41;99792.41;;;5.43;58.86
49585;BME280;35491;49.142;9.210;2024-03-08T01:44:41;99786.97;;;5.45;58.64
49585;BME280;35491;49.142;9.210;2024-03-08T01:46:44;99787.31;;;5.40;58.60
49585;BME280;35491;49.142;9.210;2024-03-08T01:48:45;99785.75;;;5.38;58.94
49585;BME280;35491;49.142;9.210;2024-03-08T01:50:46;99787.38;;;5.16;59.32
49585;BME280;35491;49.142;9.210;2024-03-08T01:52:49;99782.00;;;5.18;59.39
49585;BME280;35491;49.142;9.210;2024-03-08T01:54:50;99787.13;;;5.08;59.44
49585;BME280;35491;49.142;9.210;2024-03-08T01:56:51;99780.31;;;5.17;59.26
49585;BME280;35491;49.142;9.210;2024-03-08T01:58:53;99780.31;;;5.17;59.22
49585;BME280;35491;49.142;9.210;2024-03-08T02:00:54;99773.66;;;5.11;59.59
49585;BME280;35491;49.142;9.210;2024-03-08T02:02:54;99769.44;;;5.20;59.24
49585;BME280;35491;49.142;9.210;2024-03-08T02:04:55;99772.56;;;5.13;59.34
49585;BME280;35491;49.142;9.210;2024-03-08T02:06:55;99763.91;;;5.23;59.18
49585;BME280;35491;49.142;9.210;2024-03-08T02:08:55;99754.19;;;5.46;58.56
49585;BME280;35491;49.142;9.210;2024-03-08T02:10:56;99757.56;;;5.37;58.53
49585;BME280;35491;49.142;9.210;2024-03-08T02:12:57;99744.91;;;5.18;58.79
49585;BME280;35491;49.142;9.210;2024-03-08T02:14:58;99742.34;;;5.16;58.98
49585;BME280;35491;49.142;9.210;2024-03-08T02:17:01;99740.81;;;5.25;58.97
49585;BME280;35491;49.142;9.210;2024-03-08T02:19:02;99755.50;;;5.18;59.15
49585;BME280;35491;49.142;9.210;2024-03-08T02:21:03;99741.03;;;5.22;58.94
49585;BME280;35491;49.142;9.210;2024-03-08T02:23:04;99752.13;;;5.27;58.94
49585;BME280;35491;49.142;9.210;2024-03-08T02:25:04;99753.81;;;5.28;58.64
49585;BME280;35491;49.142;9.210;2024-03-08T02:27:05;99738.16;;;5.25;58.86
49585;BME280;35491;49.142;9.210;2024-03-08T02:29:06;99746.19;;;5.12;59.44
49585;BME280;35491;49.142;9.210;2024-03-08T02:31:06;99737.88;;;5.05;59.41
49585;BME280;35491;49.142;9.210;2024-03-08T02:33:08;99744.16;;;5.15;59.04
49585;BME280;35491;49.142;9.210;2024-03-08T02:35:11;99734.28;;;5.18;59.11
49585;BME280;35491;49.142;9.210;2024-03-08T02:37:11;99737.13;;;5.03;59.48
49585;BME280;35491;49.142;9.210;2024-03-08T02:39:11;99739.34;;;5.09;59.54
49585;BME280;35491;49.142;9.210;2024-03-08T02:41:12;99730.75;;;5.06;59.41
49585;BME280;35491;49.142;9.210;2024-03-08T02:43:13;99729.19;;;5.03;59.56
49585;BME280;35491;49.142;9.210;2024-03-08T02:45:15;99729.50;;;4.87;59.86
49585;BME280;35491;49.142;9.210;2024-03-08T02:47:15;99723.50;;;4.85;60.04
49585;BME280;35491;49.142;9.210;2024-03-08T02:49:16;99717.19;;;4.75;60.25
49585;BME280;35491;49.142;9.210;2024-03-08T02:51:16;99727.50;;;4.91;60.02
49585;BME280;35491;49.142;9.210;2024-03-08T02:53:16;99719.19;;;4.60;60.94
49585;BME280;35491;49.142;9.210;2024-03-08T02:55:18;99721.50;;;4.64;60.75
49585;BME280;35491;49.142;9.210;2024-03-08T02:57:20;99719.94;;;4.73;60.52
49585;BME280;35491;49.142;9.210;2024-03-08T02:59:20;99724.09;;;4.89;60.13
49585;BME280;35491;49.142;9.210;2024-03-08T03:01:20;99720.13;;;4.83;60.40
49585;BME280;35491;49.142;9.210;2024-03-08T03:03:22;99719.81;;;4.99;60.13
49585;BME280;35491;49.142;9.210;2024-03-08T03:05:23;99719.28;;;4.94;59.89
49585;BME280;35491;49.142;9.210;2024-03-08T03:07:23;99712.34;;;5.04;59.73
49585;BME280;35491;49.142;9.210;2024-03-08T03:09:27;99717.50;;;5.06;59.63
49585;BME280;35491;49.142;9.210;2024-03-08T03:11:28;99715.56;;;4.96;59.80
49585;BME280;35491;49.142;9.210;2024-03-08T03:13:28;99712.91;;;4.96;59.75
49585;BME280;35491;49.142;9.210;2024-03-08T03:15:29;99710.59;;;4.92;59.71
49585;BME280;35491;49.142;9.210;2024-03-08T03:17:29;99706.00;;;4.71;60.51
49585;BME280;35491;49.142;9.210;2024-03-08T03:19:30;99701.63;;;4.59;60.61
49585;BME280;35491;49.142;9.210;2024-03-08T03:21:30;99706.38;;;4.53;60.97
49585;BME280;35491;49.142;9.210;2024-03-08T03:23:31;99702.63;;;4.69;60.59
49585;BME280;35491;49.142;9.210;2024-03-08T03:25:33;99693.19;;;4.65;60.68
49585;BME280;35491;49.142;9.210;2024-03-08T03:27:35;99698.16;;;4.69;60.24
49585;BME280;35491;49.142;9.210;2024-03-08T03:29:39;99693.97;;;4.78;60.32
49585;BME280;35491;49.142;9.210;2024-03-08T03:31:42;99692.41;;;4.76;60.34
49585;BME280;35491;49.142;9.210;2024-03-08T03:33:42;99689.41;;;4.80;59.97
49585;BME280;35491;49.142;9.210;2024-03-08T03:35:43;99685.66;;;4.72;60.84
49585;BME280;35491;49.142;9.210;2024-03-08T03:37:44;99688.69;;;4.78;60.30
49585;BME280;35491;49.142;9.210;2024-03-08T03:40:01;99682.88;;;4.73;60.56
49585;BME280;35491;49.142;9.210;2024-03-08T03:42:01;99678.78;;;4.69;60.35
49585;BME280;35491;49.142;9.210;2024-03-08T03:44:02;99681.56;;;4.67;60.80
49585;BME280;35491;49.142;9.210;2024-03-08T03:46:02;99687.47;;;4.82;60.33
49585;BME280;35491;49.142;9.210;2024-03-08T03:48:06;99689.06;;;4.96;59.96
49585;BME280;35491;49.142;9.210;2024-03-08T03:50:07;99676.31;;;5.02;59.67
49585;BME280;35491;49.142;9.210;2024-03-08T03:52:09;99679.81;;;5.02;59.62
49585;BME280;35491;49.142;9.210;2024-03-08T03:54:10;99684.97;;;4.92;60.19
49585;BME280;35491;49.142;9.210;2024-03-08T03:56:10;99675.25;;;5.04;59.81
49585;BME280;35491;49.142;9.210;2024-03-08T03:58:11;99685.34;;;5.10;59.74
49585;BME280;35491;49.142;9.210;2024-03-08T04:00:11;99681.50;;;5.14;59.54
49585;BME280;35491;49.142;9.210;2024-03-08T04:02:12;99672.84;;;5.12;59.10
49585;BME280;35491;49.142;9.210;2024-03-08T04:04:12;99677.19;;;5.13;59.26
49585;BME280;35491;49.142;9.210;2024-03-08T04:06:12;99675.72;;;5.21;59.24
49585;BME280;35491;49.142;9.210;2024-03-08T04:08:12;99676.81;;;5.18;59.13
49585;BME280;35491;49.142;9.210;2024-03-08T04:10:13;99677.91;;;5.27;59.09
49585;BME280;35491;49.142;9.210;2024-03-08T04:12:13;99678.03;;;5.25;59.08
49585;BME280;35491;49.142;9.210;2024-03-08T04:14:15;99680.56;;;5.15;58.92
49585;BME280;35491;49.142;9.210;2024-03-08T04:16:16;99680.69;;;5.14;59.32
49585;BME280;35491;49.142;9.210;2024-03-08T04:18:16;99679.94;;;5.00;59.45
49585;BME280;35491;49.142;9.210;2024-03-08T04:20:16;99677.91;;;4.68;60.32
49585;BME280;35491;49.142;9.210;2024-03-08T04:22:17;99677.88;;;4.93;59.83
49585;BME280;35491;49.142;9.210;2024-03-08T04:24:17;99675.56;;;4.88;60.10
49585;BME280;35491;49.142;9.210;2024-03-08T04:26:18;99670.97;;;4.79;60.44
49585;BME280;35491;49.142;9.210;2024-03-08T04:28:18;99660.28;;;4.92;59.89
49585;BME280;35491;49.142;9.210;2024-03-08T04:30:18;99676.56;;;5.10;59.52
49585;BME280;35491;49.142;9.210;2024-03-08T04:32:21;99673.44;;;5.16;59.18
49585;BME280;35491;49.142;9.210;2024-03-08T04:34:22;99669.34;;;5.00;59.73
49585;BME280;35491;49.142;9.210;2024-03-08T04:36:22;99666.94;;;5.09;59.60
49585;BME280;35491;49.142;9.210;2024-03-08T04:38:25;99672.13;;;5.22;59.43
49585;BME280;35491;49.142;9.210;2024-03-08T04:40:25;99666.81;;;5.22;59.38
49585;BME280;35491;49.142;9.210;2024-03-08T04:42:28;99663.22;;;5.23;58.89
49585;BME280;35491;49.142;9.210;2024-03-08T04:44:30;99660.81;;;5.08;59.48
49585;BME280;35491;49.142;9.210;2024-03-08T04:46:30;99662.00;;;5.04;59.36
49585;BME280;35491;49.142;9.210;2024-03-08T04:48:31;99656.22;;;4.99;59.37
49585;BME280;35491;49.142;9.210;2024-03-08T04:50:31;99657.66;;;5.03;59.77
49585;BME280;35491;49.142;9.210;2024-03-08T04:52:31;99656.94;;;5.12;59.11
49585;BME280;35491;49.142;9.210;2024-03-08T04:54:31;99663.91;;;5.02;59.76
49585;BME280;35491;49.142;9.210;2024-03-08T04:56:32;99658.34;;;4.94;59.91
49585;BME280;35491;49.142;9.210;2024-03-08T04:58:36;99660.53;;;4.89;60.12
49585;BME280;35491;49.142;9.210;2024-03-08T05:00:36;99668.75;;;4.61;60.59
49585;BME280;35491;49.142;9.210;2024-03-08T05:02:38;99658.78;;;4.65;60.64
49585;BME280;35491;49.142;9.210;2024-03-08T05:04:41;99656.75;;;4.68;60.83
49585;BME280;35491;49.142;9.210;2024-03-08T05:06:42;99651.19;;;4.60;60.78
49585;BME280;35491;49.142;9.210;2024-03-08T05:08:43;99655.59;;;4.48;61.14
49585;BME280;35491;49.142;9.210;2024-03-08T05:10:43;99655.13;;;4.43;61.36
49585;BME280;35491;49.142;9.210;2024-03-08T05:12:43;99649.31;;;4.38;61.37
49585;BME280;35491;49.142;9.210;2024-03-08T05:14:45;99652.31;;;4.33;61.59
49585;BME280;35491;49.142;9.210;2024-03-08T05:16:46;99651.03;;;4.50;61.26
49585;BME280;35491;49.142;9.210;2024-03-08T05:18:50;99656.34;;;4.50;61.23
49585;BME280;35491;49.142;9.210;2024-03-08T05:20:52;99656.22;;;4.52;61.37
49585;BME280;35491;49.142;9.210;2024-03-08T05:22:52;99653.34;;;4.55;61.22
49585;BME280;35491;49.142;9.210;2024-03-08T05:24:53;99649.28;;;4.62;61.42
49585;BME280;35491;49.142;9.210;2024-03-08T05:26:53;99653.44;;;4.53;60.96
49585;BME280;35491;49.142;9.210;2024-03-08T05:28:54;99643.28;;;4.36;61.59
49585;BME280;35491;49.142;9.210;2024-03-08T05:30:54;99645.97;;;4.47;61.48
49585;BME280;35491;49.142;9.210;2024-03-08T05:32:56;99649.19;;;4.40;61.63
49585;BME280;35491;49.142;9.210;2024-03-08T05:34:57;99644.88;;;4.39;62.11
49585;BME280;35491;49.142;9.210;2024-03-08T05:36:57;99639.41;;;4.29;62.06
49585;BME280;35491;49.142;9.210;2024-03-08T05:38:58;99642.25;;;4.14;62.27
49585;BME280;35491;49.142;9.210;2024-03-08T05:40:59;99642.47;;;4.11;62.87
49585;BME280;35491;49.142;9.210;2024-03-08T05:42:59;99638.19;;;4.21;62.55
49585;BME280;35491;49.142;9.210;2024-03-08T05:45:00;99639.81;;;4.11;62.63
49585;BME280;35491;49.142;9.210;2024-03-08T05:47:01;99638.13;;;4.10;62.87
49585;BME280;35491;49.142;9.210;2024-03-08T05:49:02;99642.06;;;4.29;62.35
49585;BME280;35491;49.142;9.210;2024-03-08T05:51:05;99641.72;;;4.33;62.03
49585;BME280;35491;49.142;9.210;2024-03-08T05:53:06;99639.94;;;4.34;62.17
49585;BME280;35491;49.142;9.210;2024-03-08T05:55:06;99637.06;;;4.13;62.50
49585;BME280;35491;49.142;9.210;2024-03-08T05:57:08;99647.09;;;4.20;62.41
49585;BME280;35491;49.142;9.210;2024-03-08T05:59:11;99642.28;;;4.26;62.57
49585;BME280;35491;49.142;9.210;2024-03-08T06:01:11;99637.66;;;4.41;62.29
49585;BME280;35491;49.142;9.210;2024-03-08T06:03:13;99635.84;;;4.41;62.06
49585;BME280;35491;49.142;9.210;2024-03-08T06:05:13;99636.19;;;4.36;61.76
49585;BME280;35491;49.142;9.210;2024-03-08T06:07:13;99633.72;;;4.22;62.34
49585;BME280;35491;49.142;9.210;2024-03-08T06:09:14;99633.63;;;4.24;62.67
49585;BME280;35491;49.142;9.210;2024-03-08T06:11:24;99633.66;;;4.35;62.09
49585;BME280;35491;49.142;9.210;2024-03-08T06:13:27;99636.97;;;4.26;62.32
49585;BME280;35491;49.142;9.210;2024-03-08T06:15:28;99635.16;;;4.15;62.69
49585;BME280;35491;49.142;9.210;2024-03-08T06:17:28;99632.28;;;3.94;63.02
49585;BME280;35491;49.142;9.210;2024-03-08T06:19:29;99626.53;;;4.00;62.87
49585;BME280;35491;49.142;9.210;2024-03-08T06:21:36;99644.38;;;4.09;62.98
49585;BME280;35491;49.142;9.210;2024-03-08T06:23:37;99633.97;;;3.95;63.18
49585;BME280;35491;49.142;9.210;2024-03-08T06:25:38;99633.03;;;3.96;63.30
49585;BME280;35491;49.142;9.210;2024-03-08T06:27:38;99629.38;;;3.85;63.48
49585;BME280;35491;49.142;9.210;2024-03-08T06:29:39;99632.91;;;3.97;63.46
49585;BME280;35491;49.142;9.210;2024-03-08T06:31:39;99623.47;;;4.06;63.52
49585;BME280;35491;49.142;9.210;2024-03-08T06:33:39;99623.94;;;4.11;63.03
49585;BME280;35491;49.142;9.210;2024-03-08T06:35:41;99634.81;;;3.95;63.37
49585;BME280;35491;49.142;9.210;2024-03-08T06:37:47;99627.75;;;4.07;63.36
49585;BME280;35491;49.142;9.210;2024-03-08T06:39:50;99628.00;;;4.04;63.31
49585;BME280;35491;49.142;9.210;2024-03-08T06:41:52;99638.81;;;4.01;63.30
49585;BME280;35491;49.142;9.210;2024-03-08T06:43:52;99636.44;;;4.09;63.13
49585;BME280;35491;49.142;9.210;2024-03-08T06:45:59;99634.59;;;3.98;63.38
49585;BME280;35491;49.142;9.210;2024-03-08T06:47:59;99639.63;;;4.26;63.04
49585;BME280;35491;49.142;9.210;2024-03-08T06:50:02;99633.91;;;4.32;62.46
49585;BME280;35491;49.142;9.210;2024-03-08T06:52:10;99633.00;;;4.56;62.08
49585;BME280;35491;49.142;9.210;2024-03-08T06:54:10;99636.34;;;4.46;62.12
49585;BME280;35491;49.142;9.210;2024-03-08T06:56:10;99639.16;;;4.56;62.18
49585;BME280;35491;49.142;9.210;2024-03-08T06:58:13;99630.59;;;4.64;61.45
49585;BME280;35491;49.142;9.210;2024-03-08T07:00:25;99646.44;;;4.77;61.62
49585;BME280;35491;49.142;9.210;2024-03-08T07:02:30;99629.44;;;4.79;61.41
49585;BME280;35491;49.142;9.210;2024-03-08T07:04:32;99635.34;;;4.83;61.33
49585;BME280;35491;49.142;9.210;2024-03-08T07:06:33;99635.38;;;4.94;60.90
49585;BME280;35491;49.142;9.210;2024-03-08T07:08:34;99638.16;;;5.04;60.60
49585;BME280;35491;49.142;9.210;2024-03-08T07:10:34;99631.16;;;5.14;60.40
49585;BME280;35491;49.142;9.210;2024-03-08T07:12:35;99623.81;;;5.07;60.39
49585;BME280;35491;49.142;9.210;2024-03-08T07:14:36;99631.91;;;5.17;60.26
49585;BME280;35491;49.142;9.210;2024-03-08T07:16:40;99628.28;;;5.29;60.00
49585;BME280;35491;49.142;9.210;2024-03-08T07:18:41;99624.78;;;5.17;60.11
49585;BME280;35491;49.142;9.210;2024-03-08T07:20:43;99631.16;;;5.03;60.44
49585;BME280;35491;49.142;9.210;2024-03-08T07:22:43;99625.63;;;5.06;60.26
49585;BME280;35491;49.142;9.210;2024-03-08T07:24:44;99628.63;;;5.24;60.12
49585;BME280;35491;49.142;9.210;2024-03-08T07:27:11;99619.63;;;5.27;59.87
49585;BME280;35491;49.142;9.210;2024-03-08T07:29:12;99611.03;;;5.46;59.44
49585;BME280;35491;49.142;9.210;2024-03-08T07:31:13;99619.84;;;5.24;59.81
49585;BME280;35491;49.142;9.210;2024-03-08T07:33:26;99613.09;;;5.20;59.93
49585;BME280;35491;49.142;9.210;2024-03-08T07:35:28;99613.22;;;5.29;59.90
49585;BME280;35491;49.142;9.210;2024-03-08T07:37:37;99607.31;;;5.37;59.81
49585;BME280;35491;49.142;9.210;2024-03-08T07:39:37;99608.00;;;5.62;59.12
49585;BME280;35491;49.142;9.210;2024-03-08T07:41:39;99606.31;;;5.50;58.95
49585;BME280;35491;49.142;9.210;2024-03-08T07:43:49;99605.25;;;5.41;59.37
49585;BME280;35491;49.142;9.210;2024-03-08T07:45:49;99604.13;;;5.66;58.72
49585;BME280;35491;49.142;9.210;2024-03-08T07:47:49;99598.19;;;5.74;58.63
49585;BME280;35491;49.142;9.210;2024-03-08T07:49:50;99599.59;;;5.45;59.10
49585;BME280;35491;49.142;9.210;2024-03-08T07:51:51;99597.53;;;5.60;58.86
49585;BME280;35491;49.142;9.210;2024-03-08T07:53:51;99596.31;;;5.53;58.93
49585;BME280;35491;49.142;9.210;2024-03-08T07:55:52;99594.53;;;5.42;59.26
49585;BME280;35491;49.142;9.210;2024-03-08T07:57:52;99604.34;;;5.74;58.48
49585;BME280;35491;49.142;9.210;2024-03-08T07:59:53;99589.28;;;5.63;58.58
49585;BME280;35491;49.142;9.210;2024-03-08T08:01:53;99585.47;;;5.56;58.66
49585;BME280;35491;49.142;9.210;2024-03-08T08:03:53;99590.25;;;5.62;58.78
49585;BME280;35491;49.142;9.210;2024-03-08T08:05:53;99584.31;;;5.82;58.16
49585;BME280;35491;49.142;9.210;2024-03-08T08:07:54;99577.53;;;5.89;57.77
49585;BME280;35491;49.142;9.210;2024-03-08T08:09:54;99577.47;;;6.12;57.19
49585;BME280;35491;49.142;9.210;2024-03-08T08:11:57;99575.59;;;6.02;57.20
49585;BME280;35491;49.142;9.210;2024-03-08T08:13:57;99582.38;;;5.84;57.68
49585;BME280;35491;49.142;9.210;2024-03-08T08:15:57;99585.44;;;6.12;57.35
49585;BME280;35491;49.142;9.210;2024-03-08T08:17:57;99576.72;;;6.42;56.47
49585;BME280;35491;49.142;9.210;2024-03-08T08:19:58;99575.59;;;6.45;56.14
49585;BME280;35491;49.142;9.210;2024-03-08T08:21:58;99574.13;;;6.52;56.26
49585;BME280;35491;49.142;9.210;2024-03-08T08:24:06;99572.06;;;6.55;56.03
49585;BME280;35491;49.142;9.210;2024-03-08T08:26:07;99566.25;;;6.40;56.04
49585;BME280;35491;49.142;9.210;2024-03-08T08:28:07;99571.53;;;6.62;55.76
49585;BME280;35491;49.142;9.210;2024-03-08T08:30:14;99564.91;;;6.77;55.45
49585;BME280;35491;49.142;9.210;2024-03-08T08:32:23;99568.41;;;6.78;55.45
49585;BME280;35491;49.142;9.210;2024-03-08T08:34:31;99564.84;;;6.67;55.92
49585;BME280;35491;49.142;9.210;2024-03-08T08:36:31;99559.00;;;6.74;55.59
49585;BME280;35491;49.142;9.210;2024-03-08T08:38:32;99560.75;;;6.84;55.21
49585;BME280;35491;49.142;9.210;2024-03-08T08:40:33;99553.88;;;6.82;55.00
49585;BME280;35491;49.142;9.210;2024-03-08T08:42:33;99551.41;;;6.59;55.50
49585;BME280;35491;49.142;9.210;2024-03-08T08:44:35;99551.19;;;6.30;55.93
49585;BME280;35491;49.142;9.210;2024-03-08T08:46:36;99550.53;;;6.59;55.37
49585;BME280;35491;49.142;9.210;2024-03-08T08:48:37;99553.47;;;6.86;54.67
49585;BME280;35491;49.142;9.210;2024-03-08T08:50:38;99550.06;;;6.75;54.75
49585;BME280;35491;49.142;9.210;2024-03-08T08:52:39;99548.13;;;7.08;54.14
49585;BME280;35491;49.142;9.210;2024-03-08T08:54:40;99549.34;;;6.72;54.89
49585;BME280;35491;49.142;9.210;2024-03-08T08:56:46;99551.81;;;6.64;55.19
49585;BME280;35491;49.142;9.210;2024-03-08T08:58:47;99545.91;;;6.51;55.41
49585;BME280;35491;49.142;9.210;2024-03-08T09:00:50;99542.84;;;6.55;55.58
49585;BME280;35491;49.142;9.210;2024-03-08T09:02:52;99544.66;;;6.86;54.96
49585;BME280;35491;49.142;9.210;2024-03-08T09:04:55;99535.91;;;7.05;54.17
49585;BME280;35491;49.142;9.210;2024-03-08T09:07:01;99527.94;;;6.95;54.49
49585;BME280;35491;49.142;9.210;2024-03-08T09:09:02;99529.88;;;6.93;54.43
49585;BME280;35491;49.142;9.210;2024-03-08T09:13:24;99526.63;;;7.21;53.46
49585;BME280;35491;49.142;9.210;2024-03-08T09:15:25;99528.47;;;7.40;53.28
49585;BME280;35491;49.142;9.210;2024-03-08T09:17:28;99520.72;;;7.17;53.47
49585;BME280;35491;49.142;9.210;2024-03-08T09:19:29;99514.00;;;7.23;53.46
49585;BME280;35491;49.142;9.210;2024-03-08T09:21:29;99517.53;;;7.33;53.33
49585;BME280;35491;49.142;9.210;2024-03-08T09:23:31;99516.13;;;7.39;53.39
49585;BME280;35491;49.142;9.210;2024-03-08T09:25:44;99515.00;;;7.31;53.29
49585;BME280;35491;49.142;9.210;2024-03-08T09:27:45;99508.47;;;7.36;53.02
49585;BME280;35491;49.142;9.210;2024-03-08T09:29:48;99504.63;;;7.18;53.39
49585;BME280;35491;49.142;9.210;2024-03-08T09:31:49;99503.34;;;7.13;53.33
49585;BME280;35491;49.142;9.210;2024-03-08T09:33:50;99505.59;;;7.17;53.44
49585;BME280;35491;49.142;9.210;2024-03-08T09:35:50;99503.50;;;7.11;53.41
49585;BME280;35491;49.142;9.210;2024-03-08T09:37:51;99496.47;;;7.00;54.03
49585;BME280;35491;49.142;9.210;2024-03-08T09:39:51;99502.69;;;7.30;53.38
49585;BME280;35491;49.142;9.210;2024-03-08T09:41:52;99495.13;;;7.16;53.45
49585;BME280;35491;49.142;9.210;2024-03-08T09:43:52;99487.75;;;7.39;52.99
49585;BME280;35491;49.142;9.210;2024-03-08T09:45:53;99498.00;;;7.83;52.15
49585;BME280;35491;49.142;9.210;2024-03-08T09:47:53;99491.69;;;7.94;51.69
49585;BME280;35491;49.142;9.210;2024-03-08T09:49:54;99482.81;;;8.13;51.11
49585;BME280;35491;49.142;9.210;2024-03-08T09:51:55;99476.06;;;8.28;50.66
49585;BME280;35491;49.142;9.210;2024-03-08T09:53:56;99477.34;;;8.72;50.13
49585;BME280;35491;49.142;9.210;2024-03-08T09:55:57;99480.06;;;8.62;49.63
49585;BME280;35491;49.142;9.210;2024-03-08T09:57:59;99470.16;;;8.82;48.92
49585;BME280;35491;49.142;9.210;2024-03-08T10:00:19;99473.31;;;8.68;49.50
49585;BME280;35491;49.142;9.210;2024-03-08T10:02:24;99477.53;;;8.61;49.36
49585;BME280;35491;49.142;9.210;2024-03-08T10:04:24;99472.81;;;8.82;49.35
49585;BME280;35491;49.142;9.210;2024-03-08T10:06:26;99473.00;;;8.71;49.11
49585;BME280;35491;49.142;9.210;2024-03-08T10:08:26;99469.16;;;8.83;49.23
49585;BME280;35491;49.142;9.210;2024-03-08T10:10:28;99471.69;;;8.85;49.11
49585;BME280;35491;49.142;9.210;2024-03-08T10:12:28;99464.34;;;8.69;49.53
49585;BME280;35491;49.142;9.210;2024-03-08T10:14:29;99460.31;;;8.45;50.42
49585;BME280;35491;49.142;9.210;2024-03-08T10:16:29;99461.56;;;8.41;50.29
49585;BME280;35491;49.142;9.210;2024-03-08T10:18:29;99458.41;;;8.18;50.82
49585;BME280;35491;49.142;9.210;2024-03-08T10:20:30;99453.44;;;8.52;50.34
49585;BME280;35491;49.142;9.210;2024-03-08T10:22:33;99449.09;;;8.89;49.54
49585;BME280;35491;49.142;9.210;2024-03-08T10:24:35;99443.31;;;8.94;49.53
49585;BME280;35491;49.142;9.210;2024-03-08T10:26:36;99436.72;;;9.16;49.20
49585;BME280;35491;49.142;9.210;2024-03-08T10:28:37;99428.56;;;9.17;50.12
49585;BME280;35491;49.142;9.210;2024-03-08T10:30:38;99434.38;;;9.49;48.17
49585;BME280;35491;49.142;9.210;2024-03-08T10:32:38;99427.34;;;9.30;48.42
49585;BME280;35491;49.142;9.210;2024-03-08T10:34:39;99430.72;;;8.86;49.10
49585;BME280;35491;49.142;9.210;2024-03-08T10:36:42;99431.38;;;9.16;48.80
49585;BME280;35491;49.142;9.210;2024-03-08T10:38:42;99428.66;;;9.44;48.45
49585;BME280;35491;49.142;9.210;2024-03-08T10:40:46;99418.84;;;9.44;48.49
49585;BME280;35491;49.142;9.210;2024-03-08T10:45:04;99416.91;;;9.36;48.42
49585;BME280;35491;49.142;9.210;2024-03-08T10:47:18;99410.78;;;9.08;49.06
49585;BME280;35491;49.142;9.210;2024-03-08T10:49:25;99413.63;;;9.43;48.68
49585;BME280;35491;49.142;9.210;2024-03-08T10:51:26;99421.31;;;9.28;48.69
49585;BME280;35491;49.142;9.210;2024-03-08T10:53:27;99414.94;;;9.39;48.52
49585;BME280;35491;49.142;9.210;2024-03-08T10:55:29;99412.56;;;9.35;48.30
49585;BME280;35491;49.142;9.210;2024-03-08T10:57:32;99413.34;;;9.46;48.12